sensor_id;sensor_type;location;lat;lon;timestamp;temperature;humidity
51855;DHT22;37895;53.240;6.572;2023-04-03T00:01:24;2.90;86.90
51855;DHT22;37895;53.240;6.572;2023-04-03T00:03:50;3.80;86.90
51855;DHT22;37895;53.240;6.572;2023-04-03T00:06:17;2.90;85.90
51855;DHT22;37895;53.240;6.572;2023-04-03T00:08:43;3.00;85.40
51855;DHT22;37895;53.240;6.572;2023-04-03T00:11:09;3.00;84.70
51855;DHT22;37895;53.240;6.572;2023-04-03T00:13:36;3.00;84.30
51855;DHT22;37895;53.240;6.572;2023-04-03T00:16:02;2.90;83.50
51855;DHT22;37895;53.240;6.572;2023-04-03T00:18:29;3.00;83.00
51855;DHT22;37895;53.240;6.572;2023-04-03T00:20:54;2.90;82.60
51855;DHT22;37895;53.240;6.572;2023-04-03T00:23:20;3.00;82.00
51855;DHT22;37895;53.240;6.572;2023-04-03T00:25:46;3.00;82.30
51855;DHT22;37895;53.240;6.572;2023-04-03T00:28:11;3.00;82.10
51855;DHT22;37895;53.240;6.572;2023-04-03T00:30:37;2.90;81.90
51855;DHT22;37895;53.240;6.572;2023-04-03T00:33:03;2.90;82.00
51855;DHT22;37895;53.240;6.572;2023-04-03T00:35:29;2.90;81.70
51855;DHT22;37895;53.240;6.572;2023-04-03T00:37:55;3.00;81.80
51855;DHT22;37895;53.240;6.572;2023-04-03T00:40:22;3.30;82.00
51855;DHT22;37895;53.240;6.572;2023-04-03T00:42:51;3.30;82.20
51855;DHT22;37895;53.240;6.572;2023-04-03T00:45:29;2.80;82.20
51855;DHT22;37895;53.240;6.572;2023-04-03T00:47:56;3.00;82.30
51855;DHT22;37895;53.240;6.572;2023-04-03T00:50:22;2.60;82.30
51855;DHT22;37895;53.240;6.572;2023-04-03T00:52:48;2.60;82.70
51855;DHT22;37895;53.240;6.572;2023-04-03T00:55:15;2.70;83.00
51855;DHT22;37895;53.240;6.572;2023-04-03T00:57:42;2.60;82.90
51855;DHT22;37895;53.240;6.572;2023-04-03T01:00:11;2.50;82.80
51855;DHT22;37895;53.240;6.572;2023-04-03T01:02:37;2.60;83.00
51855;DHT22;37895;53.240;6.572;2023-04-03T01:05:06;2.50;82.90
51855;DHT22;37895;53.240;6.572;2023-04-03T01:07:32;2.50;83.40
51855;DHT22;37895;53.240;6.572;2023-04-03T01:10:08;2.40;83.40
51855;DHT22;37895;53.240;6.572;2023-04-03T01:12:39;2.40;83.60
51855;DHT22;37895;53.240;6.572;2023-04-03T01:15:14;2.50;84.00
51855;DHT22;37895;53.240;6.572;2023-04-03T01:17:43;2.50;84.30
51855;DHT22;37895;53.240;6.572;2023-04-03T01:20:33;2.50;84.30
51855;DHT22;37895;53.240;6.572;2023-04-03T01:28:19;2.40;84.90
51855;DHT22;37895;53.240;6.572;2023-04-03T01:33:30;2.50;85.10
51855;DHT22;37895;53.240;6.572;2023-04-03T01:35:56;3.10;85.40
51855;DHT22;37895;53.240;6.572;2023-04-03T01:38:21;2.70;85.40
51855;DHT22;37895;53.240;6.572;2023-04-03T01:40:47;2.40;85.10
51855;DHT22;37895;53.240;6.572;2023-04-03T01:43:13;2.40;85.60
51855;DHT22;37895;53.240;6.572;2023-04-03T01:45:38;2.50;86.00
51855;DHT22;37895;53.240;6.572;2023-04-03T01:48:04;2.50;85.90
51855;DHT22;37895;53.240;6.572;2023-04-03T01:50:30;2.50;85.80
51855;DHT22;37895;53.240;6.572;2023-04-03T01:52:56;2.40;85.80
51855;DHT22;37895;53.240;6.572;2023-04-03T01:55:22;2.40;86.20
51855;DHT22;37895;53.240;6.572;2023-04-03T01:57:47;2.80;86.80
51855;DHT22;37895;53.240;6.572;2023-04-03T02:00:13;2.40;86.50
51855;DHT22;37895;53.240;6.572;2023-04-03T02:02:39;2.40;86.70
51855;DHT22;37895;53.240;6.572;2023-04-03T02:05:05;2.60;86.70
51855;DHT22;37895;53.240;6.572;2023-04-03T02:07:31;2.30;86.50
51855;DHT22;37895;53.240;6.572;2023-04-03T02:09:57;2.20;86.60
51855;DHT22;37895;53.240;6.572;2023-04-03T02:12:23;2.80;87.40
51855;DHT22;37895;53.240;6.572;2023-04-03T02:14:49;2.30;87.30
51855;DHT22;37895;53.240;6.572;2023-04-03T02:17:15;2.50;87.40
51855;DHT22;37895;53.240;6.572;2023-04-03T02:19:41;2.00;87.60
51855;DHT22;37895;53.240;6.572;2023-04-03T02:22:06;2.50;88.10
51855;DHT22;37895;53.240;6.572;2023-04-03T02:24:32;2.00;88.30
51855;DHT22;37895;53.240;6.572;2023-04-03T02:26:58;1.90;88.20
51855;DHT22;37895;53.240;6.572;2023-04-03T02:29:24;1.90;88.20
51855;DHT22;37895;53.240;6.572;2023-04-03T02:31:50;1.80;88.30
51855;DHT22;37895;53.240;6.572;2023-04-03T02:34:16;1.90;88.80
51855;DHT22;37895;53.240;6.572;2023-04-03T02:36:42;1.80;88.70
51855;DHT22;37895;53.240;6.572;2023-04-03T02:39:07;1.80;88.90
51855;DHT22;37895;53.240;6.572;2023-04-03T02:41:33;1.70;88.80
51855;DHT22;37895;53.240;6.572;2023-04-03T02:44:05;1.70;88.90
51855;DHT22;37895;53.240;6.572;2023-04-03T02:46:32;1.90;89.20
51855;DHT22;37895;53.240;6.572;2023-04-03T02:48:57;1.90;89.20
51855;DHT22;37895;53.240;6.572;2023-04-03T02:51:23;1.60;89.30
51855;DHT22;37895;53.240;6.572;2023-04-03T02:53:50;1.50;89.10
51855;DHT22;37895;53.240;6.572;2023-04-03T02:56:16;2.00;89.70
51855;DHT22;37895;53.240;6.572;2023-04-03T02:58:42;1.40;89.80
51855;DHT22;37895;53.240;6.572;2023-04-03T03:01:08;1.40;90.00
51855;DHT22;37895;53.240;6.572;2023-04-03T03:03:34;1.30;90.00
51855;DHT22;37895;53.240;6.572;2023-04-03T03:06:08;1.30;90.00
51855;DHT22;37895;53.240;6.572;2023-04-03T03:08:34;1.20;90.20
51855;DHT22;37895;53.240;6.572;2023-04-03T03:11:01;1.20;90.30
51855;DHT22;37895;53.240;6.572;2023-04-03T03:13:27;1.20;90.50
51855;DHT22;37895;53.240;6.572;2023-04-03T03:15:53;1.10;90.50
51855;DHT22;37895;53.240;6.572;2023-04-03T03:18:18;1.10;90.90
51855;DHT22;37895;53.240;6.572;2023-04-03T03:20:44;1.00;90.60
51855;DHT22;37895;53.240;6.572;2023-04-03T03:23:10;1.30;90.90
51855;DHT22;37895;53.240;6.572;2023-04-03T03:25:40;1.70;91.10
51855;DHT22;37895;53.240;6.572;2023-04-03T03:28:06;0.90;91.10
51855;DHT22;37895;53.240;6.572;2023-04-03T03:30:32;0.90;91.10
51855;DHT22;37895;53.240;6.572;2023-04-03T03:32:58;0.80;91.10
51855;DHT22;37895;53.240;6.572;2023-04-03T03:35:23;0.60;91.40
51855;DHT22;37895;53.240;6.572;2023-04-03T03:37:49;0.60;91.50
51855;DHT22;37895;53.240;6.572;2023-04-03T03:40:15;0.60;91.60
51855;DHT22;37895;53.240;6.572;2023-04-03T03:42:40;0.50;91.70
51855;DHT22;37895;53.240;6.572;2023-04-03T03:45:06;0.50;91.70
51855;DHT22;37895;53.240;6.572;2023-04-03T03:47:32;0.50;91.80
51855;DHT22;37895;53.240;6.572;2023-04-03T03:49:58;0.50;91.60
51855;DHT22;37895;53.240;6.572;2023-04-03T03:52:23;1.30;91.90
51855;DHT22;37895;53.240;6.572;2023-04-03T03:54:49;0.50;91.90
51855;DHT22;37895;53.240;6.572;2023-04-03T03:57:15;0.50;91.90
51855;DHT22;37895;53.240;6.572;2023-04-03T03:59:40;0.50;91.90
51855;DHT22;37895;53.240;6.572;2023-04-03T04:02:07;0.50;91.90
51855;DHT22;37895;53.240;6.572;2023-04-03T04:04:32;0.90;92.00
51855;DHT22;37895;53.240;6.572;2023-04-03T04:06:58;0.50;91.80
51855;DHT22;37895;53.240;6.572;2023-04-03T04:09:26;0.40;91.90
51855;DHT22;37895;53.240;6.572;2023-04-03T04:11:51;0.60;92.10
51855;DHT22;37895;53.240;6.572;2023-04-03T04:14:17;0.60;92.10
51855;DHT22;37895;53.240;6.572;2023-04-03T04:16:43;0.50;92.20
51855;DHT22;37895;53.240;6.572;2023-04-03T04:19:08;0.40;92.10
51855;DHT22;37895;53.240;6.572;2023-04-03T04:21:34;0.40;92.10
51855;DHT22;37895;53.240;6.572;2023-04-03T04:24:00;0.40;92.20
51855;DHT22;37895;53.240;6.572;2023-04-03T04:26:26;1.40;92.40
51855;DHT22;37895;53.240;6.572;2023-04-03T04:28:52;0.40;92.20
51855;DHT22;37895;53.240;6.572;2023-04-03T04:31:17;0.40;92.20
51855;DHT22;37895;53.240;6.572;2023-04-03T04:33:43;0.40;92.30
51855;DHT22;37895;53.240;6.572;2023-04-03T04:36:08;1.10;92.40
51855;DHT22;37895;53.240;6.572;2023-04-03T04:38:34;0.50;92.20
51855;DHT22;37895;53.240;6.572;2023-04-03T04:41:00;0.80;92.20
51855;DHT22;37895;53.240;6.572;2023-04-03T04:43:26;0.60;92.00
51855;DHT22;37895;53.240;6.572;2023-04-03T04:46:09;0.50;92.10
51855;DHT22;37895;53.240;6.572;2023-04-03T04:48:36;0.50;92.30
51855;DHT22;37895;53.240;6.572;2023-04-03T04:51:02;0.50;92.10
51855;DHT22;37895;53.240;6.572;2023-04-03T04:53:27;0.50;92.20
51855;DHT22;37895;53.240;6.572;2023-04-03T04:55:53;0.40;92.20
51855;DHT22;37895;53.240;6.572;2023-04-03T04:58:19;0.40;92.30
51855;DHT22;37895;53.240;6.572;2023-04-03T05:00:45;0.40;92.60
51855;DHT22;37895;53.240;6.572;2023-04-03T05:03:10;0.60;92.70
51855;DHT22;37895;53.240;6.572;2023-04-03T05:05:38;0.40;92.50
51855;DHT22;37895;53.240;6.572;2023-04-03T05:08:04;0.30;92.20
51855;DHT22;37895;53.240;6.572;2023-04-03T05:10:30;0.40;92.50
51855;DHT22;37895;53.240;6.572;2023-04-03T05:12:56;0.20;92.60
51855;DHT22;37895;53.240;6.572;2023-04-03T05:15:22;0.20;92.70
51855;DHT22;37895;53.240;6.572;2023-04-03T05:17:48;0.20;92.70
51855;DHT22;37895;53.240;6.572;2023-04-03T05:20:14;0.20;92.70
51855;DHT22;37895;53.240;6.572;2023-04-03T05:22:39;0.10;92.80
51855;DHT22;37895;53.240;6.572;2023-04-03T05:25:06;0.10;92.90
51855;DHT22;37895;53.240;6.572;2023-04-03T05:27:31;0.10;92.90
51855;DHT22;37895;53.240;6.572;2023-04-03T05:29:57;0.10;92.90
51855;DHT22;37895;53.240;6.572;2023-04-03T05:32:24;0.10;92.90
51855;DHT22;37895;53.240;6.572;2023-04-03T05:34:51;0.10;93.00
51855;DHT22;37895;53.240;6.572;2023-04-03T05:37:17;0.10;93.00
51855;DHT22;37895;53.240;6.572;2023-04-03T05:39:43;0.10;93.00
51855;DHT22;37895;53.240;6.572;2023-04-03T05:42:08;0.10;93.00
51855;DHT22;37895;53.240;6.572;2023-04-03T05:44:34;0.10;93.10
51855;DHT22;37895;53.240;6.572;2023-04-03T05:47:00;0.10;93.10
51855;DHT22;37895;53.240;6.572;2023-04-03T05:49:26;0.20;93.10
51855;DHT22;37895;53.240;6.572;2023-04-03T05:51:51;1.00;93.40
51855;DHT22;37895;53.240;6.572;2023-04-03T05:54:28;0.20;93.30
51855;DHT22;37895;53.240;6.572;2023-04-03T05:56:55;0.20;93.40
51855;DHT22;37895;53.240;6.572;2023-04-03T05:59:21;0.30;93.40
51855;DHT22;37895;53.240;6.572;2023-04-03T06:01:47;0.30;93.40
51855;DHT22;37895;53.240;6.572;2023-04-03T06:04:13;0.40;93.40
51855;DHT22;37895;53.240;6.572;2023-04-03T06:06:57;0.40;93.50
51855;DHT22;37895;53.240;6.572;2023-04-03T06:09:26;0.50;93.40
51855;DHT22;37895;53.240;6.572;2023-04-03T06:11:52;0.60;93.30
51855;DHT22;37895;53.240;6.572;2023-04-03T06:14:18;1.40;93.40
51855;DHT22;37895;53.240;6.572;2023-04-03T06:16:44;0.60;93.30
51855;DHT22;37895;53.240;6.572;2023-04-03T06:19:11;0.70;93.20
51855;DHT22;37895;53.240;6.572;2023-04-03T06:21:38;0.70;93.20
51855;DHT22;37895;53.240;6.572;2023-04-03T06:24:05;0.80;93.20
51855;DHT22;37895;53.240;6.572;2023-04-03T06:26:31;0.80;93.10
51855;DHT22;37895;53.240;6.572;2023-04-03T06:28:57;1.20;93.20
51855;DHT22;37895;53.240;6.572;2023-04-03T06:31:23;0.90;93.00
51855;DHT22;37895;53.240;6.572;2023-04-03T06:33:49;0.90;92.90
51855;DHT22;37895;53.240;6.572;2023-04-03T06:36:15;1.00;92.90
51855;DHT22;37895;53.240;6.572;2023-04-03T06:38:45;1.20;93.00
51855;DHT22;37895;53.240;6.572;2023-04-03T06:41:11;1.50;93.10
51855;DHT22;37895;53.240;6.572;2023-04-03T06:43:36;1.10;92.90
51855;DHT22;37895;53.240;6.572;2023-04-03T06:46:02;1.20;92.80
51855;DHT22;37895;53.240;6.572;2023-04-03T06:48:28;1.30;92.80
51855;DHT22;37895;53.240;6.572;2023-04-03T06:50:54;1.60;92.90
51855;DHT22;37895;53.240;6.572;2023-04-03T06:53:20;1.40;92.70
51855;DHT22;37895;53.240;6.572;2023-04-03T06:55:47;1.50;92.60
51855;DHT22;37895;53.240;6.572;2023-04-03T06:58:13;1.90;92.60
51855;DHT22;37895;53.240;6.572;2023-04-03T07:00:40;1.60;92.20
51855;DHT22;37895;53.240;6.572;2023-04-03T07:03:06;2.30;92.20
51855;DHT22;37895;53.240;6.572;2023-04-03T07:05:32;1.80;91.90
51855;DHT22;37895;53.240;6.572;2023-04-03T07:07:58;1.90;91.80
51855;DHT22;37895;53.240;6.572;2023-04-03T07:10:23;1.90;91.60
51855;DHT22;37895;53.240;6.572;2023-04-03T07:12:49;2.60;91.70
51855;DHT22;37895;53.240;6.572;2023-04-03T07:15:15;2.10;91.40
51855;DHT22;37895;53.240;6.572;2023-04-03T07:17:40;2.20;91.20
51855;DHT22;37895;53.240;6.572;2023-04-03T07:20:07;2.10;91.20
51855;DHT22;37895;53.240;6.572;2023-04-03T07:22:33;2.10;91.10
51855;DHT22;37895;53.240;6.572;2023-04-03T07:24:59;2.20;90.70
51855;DHT22;37895;53.240;6.572;2023-04-03T07:27:25;2.40;90.70
51855;DHT22;37895;53.240;6.572;2023-04-03T07:29:51;2.30;90.60
51855;DHT22;37895;53.240;6.572;2023-04-03T07:32:17;2.40;90.60
51855;DHT22;37895;53.240;6.572;2023-04-03T07:34:43;2.50;90.40
51855;DHT22;37895;53.240;6.572;2023-04-03T07:37:09;2.50;90.30
51855;DHT22;37895;53.240;6.572;2023-04-03T07:39:35;2.60;90.20
51855;DHT22;37895;53.240;6.572;2023-04-03T07:42:01;2.70;89.90
51855;DHT22;37895;53.240;6.572;2023-04-03T07:44:27;2.70;88.40
51855;DHT22;37895;53.240;6.572;2023-04-03T07:46:53;2.80;88.00
51855;DHT22;37895;53.240;6.572;2023-04-03T07:49:20;3.00;88.30
51855;DHT22;37895;53.240;6.572;2023-04-03T07:51:48;2.90;88.20
51855;DHT22;37895;53.240;6.572;2023-04-03T07:54:14;3.10;88.10
51855;DHT22;37895;53.240;6.572;2023-04-03T07:56:40;2.90;87.90
51855;DHT22;37895;53.240;6.572;2023-04-03T07:59:08;3.00;87.00
51855;DHT22;37895;53.240;6.572;2023-04-03T08:01:34;3.10;86.30
51855;DHT22;37895;53.240;6.572;2023-04-03T08:03:59;3.10;86.20
51855;DHT22;37895;53.240;6.572;2023-04-03T08:06:25;3.10;85.90
51855;DHT22;37895;53.240;6.572;2023-04-03T08:08:51;3.20;86.00
51855;DHT22;37895;53.240;6.572;2023-04-03T08:11:17;3.30;85.10
51855;DHT22;37895;53.240;6.572;2023-04-03T08:13:44;3.20;84.70
51855;DHT22;37895;53.240;6.572;2023-04-03T08:16:10;3.50;84.50
51855;DHT22;37895;53.240;6.572;2023-04-03T08:18:37;3.30;84.70
51855;DHT22;37895;53.240;6.572;2023-04-03T08:21:08;3.40;84.90
51855;DHT22;37895;53.240;6.572;2023-04-03T08:23:34;3.40;84.40
51855;DHT22;37895;53.240;6.572;2023-04-03T08:26:12;3.40;84.30
51855;DHT22;37895;53.240;6.572;2023-04-03T08:28:39;3.50;83.40
51855;DHT22;37895;53.240;6.572;2023-04-03T08:31:07;3.40;83.40
51855;DHT22;37895;53.240;6.572;2023-04-03T08:33:34;3.60;83.50
51855;DHT22;37895;53.240;6.572;2023-04-03T08:36:06;3.70;83.00
51855;DHT22;37895;53.240;6.572;2023-04-03T08:38:33;3.70;82.50
51855;DHT22;37895;53.240;6.572;2023-04-03T08:41:16;3.80;82.70
51855;DHT22;37895;53.240;6.572;2023-04-03T08:46:17;3.90;81.80
51855;DHT22;37895;53.240;6.572;2023-04-03T08:48:46;4.00;82.10
51855;DHT22;37895;53.240;6.572;2023-04-03T08:51:18;4.00;81.40
51855;DHT22;37895;53.240;6.572;2023-04-03T08:53:56;4.10;81.00
51855;DHT22;37895;53.240;6.572;2023-04-03T08:56:24;4.20;80.80
51855;DHT22;37895;53.240;6.572;2023-04-03T08:58:56;4.20;80.40
51855;DHT22;37895;53.240;6.572;2023-04-03T09:01:37;4.20;79.70
51855;DHT22;37895;53.240;6.572;2023-04-03T09:04:10;4.40;78.70
51855;DHT22;37895;53.240;6.572;2023-04-03T09:06:38;4.30;77.60
51855;DHT22;37895;53.240;6.572;2023-04-03T09:09:15;4.80;76.30
51855;DHT22;37895;53.240;6.572;2023-04-03T09:17:14;4.60;72.60
51855;DHT22;37895;53.240;6.572;2023-04-03T09:19:57;4.80;71.50
51855;DHT22;37895;53.240;6.572;2023-04-03T09:22:25;4.90;69.30
51855;DHT22;37895;53.240;6.572;2023-04-03T09:25:35;5.00;67.00
51855;DHT22;37895;53.240;6.572;2023-04-03T09:28:00;5.10;66.80
51855;DHT22;37895;53.240;6.572;2023-04-03T09:30:27;5.20;65.30
51855;DHT22;37895;53.240;6.572;2023-04-03T09:32:54;5.30;64.20
51855;DHT22;37895;53.240;6.572;2023-04-03T09:40:45;5.40;64.60
51855;DHT22;37895;53.240;6.572;2023-04-03T09:45:43;5.50;63.10
51855;DHT22;37895;53.240;6.572;2023-04-03T09:55:59;5.90;62.50
51855;DHT22;37895;53.240;6.572;2023-04-03T09:58:31;5.90;61.30
51855;DHT22;37895;53.240;6.572;2023-04-03T10:01:00;5.90;62.50
51855;DHT22;37895;53.240;6.572;2023-04-03T10:03:31;6.00;61.60
51855;DHT22;37895;53.240;6.572;2023-04-03T10:05:58;6.10;62.30
51855;DHT22;37895;53.240;6.572;2023-04-03T10:08:27;6.10;61.20
51855;DHT22;37895;53.240;6.572;2023-04-03T10:11:15;6.20;60.20
51855;DHT22;37895;53.240;6.572;2023-04-03T10:13:53;6.60;59.40
51855;DHT22;37895;53.240;6.572;2023-04-03T10:16:50;6.40;59.70
51855;DHT22;37895;53.240;6.572;2023-04-03T10:19:39;6.60;58.90
51855;DHT22;37895;53.240;6.572;2023-04-03T10:22:27;6.60;59.20
51855;DHT22;37895;53.240;6.572;2023-04-03T10:25:20;6.60;59.30
51855;DHT22;37895;53.240;6.572;2023-04-03T10:27:59;6.60;58.80
51855;DHT22;37895;53.240;6.572;2023-04-03T10:33:18;6.90;59.80
51855;DHT22;37895;53.240;6.572;2023-04-03T10:44:16;7.10;55.00
51855;DHT22;37895;53.240;6.572;2023-04-03T10:46:53;7.10;53.80
51855;DHT22;37895;53.240;6.572;2023-04-03T10:49:41;7.30;53.20
51855;DHT22;37895;53.240;6.572;2023-04-03T10:52:27;7.40;53.00
51855;DHT22;37895;53.240;6.572;2023-04-03T10:55:34;7.40;53.00
51855;DHT22;37895;53.240;6.572;2023-04-03T10:58:03;7.50;51.30
51855;DHT22;37895;53.240;6.572;2023-04-03T11:00:41;7.50;51.20
51855;DHT22;37895;53.240;6.572;2023-04-03T11:03:30;7.60;49.90
51855;DHT22;37895;53.240;6.572;2023-04-03T11:06:00;7.50;49.90
51855;DHT22;37895;53.240;6.572;2023-04-03T11:08:44;7.50;50.80
51855;DHT22;37895;53.240;6.572;2023-04-03T11:11:40;7.50;49.40
51855;DHT22;37895;53.240;6.572;2023-04-03T11:16:47;7.70;50.40
51855;DHT22;37895;53.240;6.572;2023-04-03T11:19:34;7.70;51.00
51855;DHT22;37895;53.240;6.572;2023-04-03T11:22:13;7.90;50.20
51855;DHT22;37895;53.240;6.572;2023-04-03T11:24:43;8.00;49.30
51855;DHT22;37895;53.240;6.572;2023-04-03T11:27:22;8.10;48.50
51855;DHT22;37895;53.240;6.572;2023-04-03T11:29:50;8.20;47.30
51855;DHT22;37895;53.240;6.572;2023-04-03T11:34:59;8.30;46.40
51855;DHT22;37895;53.240;6.572;2023-04-03T11:37:31;8.20;47.00
51855;DHT22;37895;53.240;6.572;2023-04-03T11:50:45;8.50;47.30
51855;DHT22;37895;53.240;6.572;2023-04-03T12:08:30;8.80;48.10
51855;DHT22;37895;53.240;6.572;2023-04-03T12:32:13;9.00;47.00
51855;DHT22;37895;53.240;6.572;2023-04-03T12:43:17;9.30;45.10
51855;DHT22;37895;53.240;6.572;2023-04-03T12:46:14;9.40;43.80
51855;DHT22;37895;53.240;6.572;2023-04-03T12:48:53;9.50;42.40
51855;DHT22;37895;53.240;6.572;2023-04-03T12:54:03;9.70;44.10
51855;DHT22;37895;53.240;6.572;2023-04-03T12:56:31;9.70;43.00
51855;DHT22;37895;53.240;6.572;2023-04-03T12:59:20;9.80;43.10
51855;DHT22;37895;53.240;6.572;2023-04-03T13:01:57;9.90;42.60
51855;DHT22;37895;53.240;6.572;2023-04-03T13:04:23;10.00;43.10
51855;DHT22;37895;53.240;6.572;2023-04-03T13:06:49;10.10;41.90
51855;DHT22;37895;53.240;6.572;2023-04-03T13:09:31;10.00;43.10
51855;DHT22;37895;53.240;6.572;2023-04-03T13:11:59;9.80;44.00
51855;DHT22;37895;53.240;6.572;2023-04-03T13:14:26;9.90;42.70
51855;DHT22;37895;53.240;6.572;2023-04-03T13:17:14;9.80;43.80
51855;DHT22;37895;53.240;6.572;2023-04-03T13:19:41;9.80;43.40
51855;DHT22;37895;53.240;6.572;2023-04-03T13:22:29;9.80;43.90
51855;DHT22;37895;53.240;6.572;2023-04-03T13:24:59;9.90;42.50
51855;DHT22;37895;53.240;6.572;2023-04-03T13:27:28;9.90;42.90
51855;DHT22;37895;53.240;6.572;2023-04-03T13:29:58;10.00;43.50
51855;DHT22;37895;53.240;6.572;2023-04-03T13:32:26;10.00;43.10
51855;DHT22;37895;53.240;6.572;2023-04-03T13:34:52;10.00;42.90
51855;DHT22;37895;53.240;6.572;2023-04-03T13:37:32;10.20;41.20
51855;DHT22;37895;53.240;6.572;2023-04-03T13:40:12;10.10;42.30
51855;DHT22;37895;53.240;6.572;2023-04-03T13:42:41;10.30;42.10
51855;DHT22;37895;53.240;6.572;2023-04-03T13:47:42;10.40;43.70
51855;DHT22;37895;53.240;6.572;2023-04-03T13:52:44;10.30;43.40
51855;DHT22;37895;53.240;6.572;2023-04-03T14:00:26;10.00;45.20
51855;DHT22;37895;53.240;6.572;2023-04-03T14:02:55;9.90;47.00
51855;DHT22;37895;53.240;6.572;2023-04-03T14:05:22;9.90;47.50
51855;DHT22;37895;53.240;6.572;2023-04-03T14:07:50;9.90;47.20
51855;DHT22;37895;53.240;6.572;2023-04-03T14:10:16;9.90;46.80
51855;DHT22;37895;53.240;6.572;2023-04-03T14:12:42;9.90;46.20
51855;DHT22;37895;53.240;6.572;2023-04-03T14:15:22;9.80;46.20
51855;DHT22;37895;53.240;6.572;2023-04-03T14:17:50;9.70;47.90
51855;DHT22;37895;53.240;6.572;2023-04-03T14:20:20;9.80;48.50
51855;DHT22;37895;53.240;6.572;2023-04-03T14:22:47;9.80;48.10
51855;DHT22;37895;53.240;6.572;2023-04-03T14:25:14;9.70;48.70
51855;DHT22;37895;53.240;6.572;2023-04-03T14:27:43;9.80;47.60
51855;DHT22;37895;53.240;6.572;2023-04-03T14:32:41;9.60;47.90
51855;DHT22;37895;53.240;6.572;2023-04-03T14:35:07;9.70;47.80
51855;DHT22;37895;53.240;6.572;2023-04-03T14:37:33;9.70;48.60
51855;DHT22;37895;53.240;6.572;2023-04-03T14:40:00;9.90;49.30
51855;DHT22;37895;53.240;6.572;2023-04-03T14:42:30;9.80;49.60
51855;DHT22;37895;53.240;6.572;2023-04-03T14:44:56;9.70;50.30
51855;DHT22;37895;53.240;6.572;2023-04-03T14:47:23;9.70;50.20
51855;DHT22;37895;53.240;6.572;2023-04-03T14:49:50;9.70;49.70
51855;DHT22;37895;53.240;6.572;2023-04-03T14:52:26;9.70;50.50
51855;DHT22;37895;53.240;6.572;2023-04-03T14:54:52;9.60;50.20
51855;DHT22;37895;53.240;6.572;2023-04-03T14:57:18;9.60;51.00
51855;DHT22;37895;53.240;6.572;2023-04-03T14:59:44;9.70;52.10
51855;DHT22;37895;53.240;6.572;2023-04-03T15:02:25;9.90;51.60
51855;DHT22;37895;53.240;6.572;2023-04-03T15:04:52;10.00;50.00
51855;DHT22;37895;53.240;6.572;2023-04-03T15:07:17;10.00;48.20
51855;DHT22;37895;53.240;6.572;2023-04-03T15:09:43;9.90;48.70
51855;DHT22;37895;53.240;6.572;2023-04-03T15:12:09;9.80;49.30
51855;DHT22;37895;53.240;6.572;2023-04-03T15:14:36;10.00;48.50
51855;DHT22;37895;53.240;6.572;2023-04-03T15:17:01;10.30;46.30
51855;DHT22;37895;53.240;6.572;2023-04-03T15:19:28;10.20;47.20
51855;DHT22;37895;53.240;6.572;2023-04-03T15:21:53;10.20;46.20
51855;DHT22;37895;53.240;6.572;2023-04-03T15:24:19;10.10;46.40
51855;DHT22;37895;53.240;6.572;2023-04-03T15:26:45;9.90;47.10
51855;DHT22;37895;53.240;6.572;2023-04-03T15:29:12;9.90;47.90
51855;DHT22;37895;53.240;6.572;2023-04-03T15:31:37;9.90;46.90
51855;DHT22;37895;53.240;6.572;2023-04-03T15:34:03;9.90;47.80
51855;DHT22;37895;53.240;6.572;2023-04-03T15:36:28;9.90;48.00
51855;DHT22;37895;53.240;6.572;2023-04-03T15:38:54;9.80;47.80
51855;DHT22;37895;53.240;6.572;2023-04-03T15:41:20;9.80;47.80
51855;DHT22;37895;53.240;6.572;2023-04-03T15:43:46;9.70;49.00
51855;DHT22;37895;53.240;6.572;2023-04-03T15:46:12;9.60;48.70
51855;DHT22;37895;53.240;6.572;2023-04-03T15:48:38;9.60;49.30
51855;DHT22;37895;53.240;6.572;2023-04-03T15:51:05;9.50;50.20
51855;DHT22;37895;53.240;6.572;2023-04-03T15:53:31;9.40;49.50
51855;DHT22;37895;53.240;6.572;2023-04-03T15:55:57;9.40;48.50
51855;DHT22;37895;53.240;6.572;2023-04-03T15:58:23;9.40;50.10
51855;DHT22;37895;53.240;6.572;2023-04-03T16:00:48;9.40;50.60
51855;DHT22;37895;53.240;6.572;2023-04-03T16:03:19;9.30;49.90
51855;DHT22;37895;53.240;6.572;2023-04-03T16:05:46;9.20;51.40
51855;DHT22;37895;53.240;6.572;2023-04-03T16:08:13;9.10;52.00
51855;DHT22;37895;53.240;6.572;2023-04-03T16:10:39;9.10;51.00
51855;DHT22;37895;53.240;6.572;2023-04-03T16:13:05;9.10;51.60
51855;DHT22;37895;53.240;6.572;2023-04-03T16:15:31;9.10;51.70
51855;DHT22;37895;53.240;6.572;2023-04-03T16:17:59;9.00;52.60
51855;DHT22;37895;53.240;6.572;2023-04-03T16:20:25;8.90;52.20
51855;DHT22;37895;53.240;6.572;2023-04-03T16:22:52;8.90;53.30
51855;DHT22;37895;53.240;6.572;2023-04-03T16:25:18;8.80;53.50
51855;DHT22;37895;53.240;6.572;2023-04-03T16:27:44;8.90;52.50
51855;DHT22;37895;53.240;6.572;2023-04-03T16:30:10;8.80;52.50
51855;DHT22;37895;53.240;6.572;2023-04-03T16:32:36;8.80;52.40
51855;DHT22;37895;53.240;6.572;2023-04-03T16:35:02;8.70;53.50
51855;DHT22;37895;53.240;6.572;2023-04-03T16:37:28;8.70;53.80
51855;DHT22;37895;53.240;6.572;2023-04-03T16:39:54;8.70;52.80
51855;DHT22;37895;53.240;6.572;2023-04-03T16:42:19;8.60;53.60
51855;DHT22;37895;53.240;6.572;2023-04-03T16:44:45;8.50;55.20
51855;DHT22;37895;53.240;6.572;2023-04-03T16:47:11;8.50;55.50
51855;DHT22;37895;53.240;6.572;2023-04-03T16:49:39;8.50;55.70
51855;DHT22;37895;53.240;6.572;2023-04-03T16:52:04;8.50;56.00
51855;DHT22;37895;53.240;6.572;2023-04-03T16:54:31;8.40;56.50
51855;DHT22;37895;53.240;6.572;2023-04-03T16:56:57;8.40;56.70
51855;DHT22;37895;53.240;6.572;2023-04-03T16:59:23;8.40;56.20
51855;DHT22;37895;53.240;6.572;2023-04-03T17:01:49;8.30;57.50
51855;DHT22;37895;53.240;6.572;2023-04-03T17:04:15;8.20;58.20
51855;DHT22;37895;53.240;6.572;2023-04-03T17:06:41;8.20;58.50
51855;DHT22;37895;53.240;6.572;2023-04-03T17:09:07;8.20;58.60
51855;DHT22;37895;53.240;6.572;2023-04-03T17:11:33;8.10;59.30
51855;DHT22;37895;53.240;6.572;2023-04-03T17:13:59;8.00;59.20
51855;DHT22;37895;53.240;6.572;2023-04-03T17:16:25;8.10;60.70
51855;DHT22;37895;53.240;6.572;2023-04-03T17:18:52;7.90;60.20
51855;DHT22;37895;53.240;6.572;2023-04-03T17:21:18;8.20;61.00
51855;DHT22;37895;53.240;6.572;2023-04-03T17:23:45;7.90;60.80
51855;DHT22;37895;53.240;6.572;2023-04-03T17:26:11;7.80;61.50
51855;DHT22;37895;53.240;6.572;2023-04-03T17:28:37;7.70;61.90
51855;DHT22;37895;53.240;6.572;2023-04-03T17:31:05;7.60;63.00
51855;DHT22;37895;53.240;6.572;2023-04-03T17:33:30;7.50;63.00
51855;DHT22;37895;53.240;6.572;2023-04-03T17:35:58;7.40;63.70
51855;DHT22;37895;53.240;6.572;2023-04-03T17:38:26;7.40;64.50
51855;DHT22;37895;53.240;6.572;2023-04-03T17:40:55;7.30;65.50
51855;DHT22;37895;53.240;6.572;2023-04-03T17:43:20;7.40;66.00
51855;DHT22;37895;53.240;6.572;2023-04-03T17:45:46;7.20;66.10
51855;DHT22;37895;53.240;6.572;2023-04-03T17:48:12;7.10;66.30
51855;DHT22;37895;53.240;6.572;2023-04-03T17:50:37;7.10;66.20
51855;DHT22;37895;53.240;6.572;2023-04-03T17:53:03;7.00;66.50